createdAt,value
2023-03-21T08:23:01.965Z,7.79
2023-03-21T08:32:00.671Z,7.57
2023-03-21T08:34:34.953Z,7.57
2023-03-21T08:35:37.347Z,7.52
2023-03-21T08:36:36.095Z,7.57
2023-03-21T08:37:36.194Z,7.57
2023-03-21T08:55:24.041Z,7.57
2023-03-21T08:56:25.163Z,7.52
2023-03-21T08:57:25.190Z,7.57
2023-03-21T08:58:25.636Z,7.57
2023-03-21T08:59:25.360Z,7.57
2023-03-21T09:02:01.550Z,7.57
2023-03-21T09:02:59.756Z,7.57
2023-03-21T09:03:59.872Z,7.57
2023-03-21T09:05:00.065Z,7.57
2023-03-21T09:05:59.997Z,7.52
2023-03-21T09:07:00.110Z,7.57
2023-03-21T09:08:00.144Z,7.63
2023-03-21T09:09:00.292Z,7.57
2023-03-21T09:10:19.241Z,7.63
2023-03-21T09:11:00.462Z,7.57
2023-03-21T09:12:00.524Z,7.52
2023-03-21T09:13:00.617Z,7.57
2023-03-21T09:14:00.689Z,7.57
2023-03-21T09:15:00.862Z,7.57
2023-03-21T09:16:00.894Z,7.63
2023-03-21T09:17:01.002Z,7.63
2023-03-21T09:18:01.049Z,7.57
2023-03-21T09:19:01.150Z,7.57
2023-03-21T09:20:01.261Z,7.57
2023-03-21T09:21:01.306Z,7.52
2023-03-21T09:22:01.406Z,7.57
2023-03-21T09:23:01.508Z,7.57
2023-03-21T09:24:01.560Z,7.57
2023-03-21T09:25:01.649Z,7.57
2023-03-21T09:26:01.785Z,7.57
2023-03-21T09:30:33.539Z,7.52
2023-03-21T09:31:34.709Z,7.57
2023-03-21T09:32:34.688Z,7.57
2023-03-21T09:33:34.791Z,7.57
2023-03-21T09:34:34.862Z,7.63
2023-03-21T09:35:34.980Z,7.57
2023-03-21T09:36:35.069Z,7.57
2023-03-21T09:37:35.101Z,7.57
2023-03-21T09:38:35.210Z,7.57
2023-03-21T09:39:35.369Z,7.57
2023-03-21T09:40:35.403Z,7.63
2023-03-21T09:41:35.483Z,7.57
2023-03-21T09:42:35.630Z,7.57
2023-03-21T09:43:35.652Z,7.57
2023-03-21T09:44:35.744Z,7.57
2023-03-21T09:45:36.107Z,7.57
2023-03-21T09:46:35.952Z,7.63
2023-03-21T09:47:36.048Z,7.57
2023-03-21T09:48:37.624Z,7.52
2023-03-21T09:49:36.137Z,7.36
2023-03-21T09:50:36.281Z,7.63
2023-03-21T09:51:36.287Z,7.63
2023-03-21T09:52:36.395Z,7.63
2023-03-21T09:53:36.501Z,7.52
2023-03-21T09:54:36.550Z,7.57
2023-03-21T09:55:36.909Z,7.57
2023-03-21T09:56:36.779Z,7.57
2023-03-21T09:57:36.790Z,7.41
2023-03-21T09:58:37.037Z,7.57
2023-03-21T09:59:36.942Z,7.57
2023-03-21T10:00:48.679Z,7.52
2023-03-21T10:01:37.125Z,7.36
2023-03-21T10:02:37.604Z,7.57
2023-03-21T10:03:37.351Z,7.41
2023-03-21T10:04:37.411Z,7.63
2023-03-21T10:05:37.757Z,7.57
2023-03-21T10:06:37.536Z,7.63
2023-03-21T10:07:37.625Z,7.63
2023-03-21T10:08:37.748Z,7.57
2023-03-21T10:09:37.766Z,7.52
2023-03-21T10:10:38.275Z,7.57
2023-03-21T10:11:37.924Z,7.57
2023-03-21T10:12:38.026Z,7.57
2023-03-21T10:13:38.084Z,7.57
2023-03-21T10:14:38.206Z,7.57
2023-03-21T10:15:38.591Z,7.57
2023-03-21T10:16:38.330Z,7.57
2023-03-21T10:17:38.461Z,7.57
2023-03-21T10:22:54.966Z,7.47
2023-03-21T10:23:55.938Z,7.63
2023-03-21T10:24:56.045Z,7.41
2023-03-21T10:25:56.208Z,7.41
2023-03-21T10:26:56.902Z,7.36
2023-03-21T10:27:56.316Z,7.41
2023-03-21T10:28:56.399Z,7.36
2023-03-21T10:29:56.462Z,7.36
2023-03-21T10:30:56.529Z,7.30
2023-03-21T10:31:56.817Z,7.41
2023-03-21T10:32:59.066Z,7.36
2023-03-21T10:33:56.794Z,7.41
2023-03-21T10:35:57.183Z,7.36
2023-03-21T10:36:57.104Z,7.41
2023-03-21T10:37:57.276Z,7.41
2023-03-21T10:38:57.322Z,7.47
2023-03-21T10:39:57.583Z,7.36
2023-03-21T10:40:57.462Z,7.41
2023-03-21T10:41:57.508Z,7.36
2023-03-21T10:42:57.576Z,7.36
2023-03-21T10:43:57.764Z,7.41
2023-03-21T10:44:57.748Z,7.41
2023-03-21T10:45:58.226Z,7.41
2023-03-21T10:46:58.251Z,7.41
2023-03-21T10:47:58.361Z,7.57
2023-03-21T10:48:58.181Z,7.41
2023-03-21T10:50:13.551Z,7.36
2023-03-21T10:50:58.296Z,7.41
2023-03-21T10:51:58.363Z,7.41
2023-03-21T10:55:48.425Z,7.41
2023-03-21T10:56:49.510Z,7.41
2023-03-21T10:57:49.607Z,7.36
2023-03-21T10:58:49.629Z,7.36
2023-03-21T10:59:49.718Z,7.36
2023-03-21T11:00:49.822Z,7.47
2023-03-21T11:01:50.019Z,7.41
2023-03-21T11:04:22.406Z,7.36
2023-03-21T11:05:23.843Z,7.41
2023-03-21T11:14:10.364Z,7.36
2023-03-21T11:15:11.470Z,7.41
2023-03-21T11:16:11.683Z,7.41
2023-03-21T11:17:11.725Z,7.41
2023-03-21T11:18:11.761Z,7.41
2023-03-21T11:19:11.837Z,7.47
2023-03-21T11:20:12.039Z,7.41
2023-03-21T11:21:12.006Z,7.41
2023-03-21T11:22:12.079Z,7.41
2023-03-21T11:23:12.187Z,7.41
2023-03-21T11:24:12.271Z,7.41
2023-03-21T11:25:12.333Z,7.41
2023-03-21T11:26:12.461Z,7.41
2023-03-21T11:27:12.495Z,7.41
2023-03-21T11:28:12.601Z,7.36
2023-03-21T11:29:12.775Z,7.41
2023-03-21T11:30:12.839Z,7.41
2023-03-21T11:31:12.906Z,7.36
2023-03-21T11:32:12.977Z,7.36
2023-03-21T11:33:13.058Z,7.41
2023-03-21T11:34:13.115Z,7.41
2023-03-21T11:35:13.197Z,7.41
2023-03-21T11:36:13.337Z,7.41
2023-03-21T11:37:13.404Z,7.36
2023-03-21T11:38:13.512Z,7.41
2023-03-21T11:39:13.552Z,7.36
2023-03-21T11:40:13.662Z,7.41
2023-03-21T11:41:13.801Z,7.41
2023-03-21T11:42:13.802Z,7.36
2023-03-21T11:43:13.877Z,7.57
2023-03-21T11:53:44.635Z,7.41
2023-03-21T11:54:45.577Z,7.41
2023-03-21T11:55:45.690Z,7.57
2023-03-21T11:56:45.794Z,7.57
2023-03-21T11:57:45.845Z,7.41
2023-03-21T11:58:45.934Z,7.36
2023-03-21T11:59:46.093Z,7.36
2023-03-21T12:00:46.121Z,7.57
2023-03-21T12:01:46.190Z,7.41
2023-03-21T12:02:46.326Z,7.41
2023-03-21T12:03:48.803Z,7.36
2023-03-21T12:04:46.527Z,7.41
2023-03-21T12:05:46.561Z,7.41
2023-03-21T12:06:46.690Z,7.36
2023-03-21T12:07:46.730Z,7.41
2023-03-21T12:08:46.822Z,7.36
2023-03-21T12:09:46.931Z,7.41
2023-03-21T12:10:47.053Z,7.41
2023-03-21T12:11:47.089Z,7.36
2023-03-21T12:12:47.179Z,7.36
2023-03-21T12:13:47.344Z,7.36
2023-03-21T12:14:47.339Z,7.36
2023-03-21T12:15:47.465Z,7.36
2023-03-21T12:16:47.506Z,7.36
2023-03-21T12:17:47.624Z,7.41
2023-03-21T12:18:47.689Z,7.36
2023-03-21T12:19:47.804Z,7.36
2023-03-21T12:20:47.858Z,7.41
2023-03-21T12:21:48.007Z,7.36
2023-03-21T12:22:48.119Z,7.36
2023-03-21T12:32:35.566Z,7.63
2023-03-21T12:33:34.716Z,7.41
2023-03-21T12:34:34.818Z,7.63
2023-03-21T12:35:34.907Z,7.41
2023-03-21T12:36:34.958Z,7.57
2023-03-21T12:37:35.092Z,7.63
2023-03-21T12:38:35.308Z,7.41
2023-03-21T12:39:35.656Z,7.41
2023-03-21T12:40:35.349Z,7.57
2023-03-21T12:41:35.415Z,7.63
2023-03-21T12:42:35.489Z,7.41
2023-03-21T12:43:35.611Z,7.41
2023-03-21T12:44:35.730Z,7.36
2023-03-21T12:45:46.478Z,7.47
2023-03-21T12:46:35.914Z,7.41
2023-03-21T12:47:35.929Z,7.36
2023-03-21T12:48:36.058Z,7.36
2023-03-21T12:49:36.133Z,7.36
2023-03-21T12:50:36.303Z,7.41
2023-03-21T12:51:36.312Z,7.41
2023-03-21T12:52:36.397Z,7.41
2023-03-21T12:53:36.488Z,7.47
2023-03-21T12:54:36.597Z,7.41
2023-03-21T12:55:37.006Z,7.41
2023-03-21T12:56:36.837Z,7.36
2023-03-21T12:57:38.332Z,7.41
2023-03-21T12:58:36.919Z,7.36
2023-03-21T13:07:19.892Z,7.36
2023-03-21T13:08:20.986Z,7.36
2023-03-21T13:09:28.425Z,7.41
2023-03-21T13:10:21.217Z,7.36
2023-03-21T13:11:21.312Z,7.41
2023-03-21T13:12:21.346Z,7.36
2023-03-21T13:13:21.430Z,7.41
2023-03-21T13:14:21.568Z,7.36
2023-03-21T13:15:24.331Z,7.36
2023-03-21T13:16:21.830Z,7.36
2023-03-21T13:17:21.821Z,7.36
2023-03-21T13:18:22.982Z,7.36
2023-03-21T13:19:21.976Z,7.41
2023-03-21T13:20:22.067Z,7.36
2023-03-21T13:21:22.219Z,7.36
2023-03-21T13:22:40.277Z,7.41
2023-03-21T13:23:22.342Z,7.41
2023-03-21T13:24:22.432Z,7.41
2023-03-21T13:25:22.496Z,7.36
2023-03-21T13:26:22.613Z,7.41
2023-03-21T13:27:22.660Z,7.36
2023-03-21T13:28:22.809Z,7.36
2023-03-21T13:29:22.864Z,7.36
2023-03-21T13:30:23.104Z,7.41
2023-03-21T13:31:23.020Z,7.36
2023-03-21T13:32:23.185Z,7.41
2023-03-21T13:33:23.150Z,7.41
2023-03-21T13:34:23.308Z,7.41
2023-03-21T13:35:24.349Z,7.41
2023-03-21T13:36:23.428Z,7.36
2023-03-21T13:37:35.433Z,7.36
2023-03-21T13:38:23.625Z,7.36
2023-03-21T13:39:24.630Z,7.36
2023-03-21T13:40:23.874Z,7.41
2023-03-21T13:41:23.932Z,7.36
2023-03-21T13:42:24.008Z,7.47
2023-03-21T13:43:27.410Z,7.41
2023-03-21T13:44:24.165Z,7.41
2023-03-21T13:45:26.311Z,7.41
2023-03-21T14:17:46.473Z,7.41
2023-03-21T14:18:54.193Z,7.41
2023-03-21T14:19:47.715Z,7.36
2023-03-21T14:20:47.738Z,7.41
2023-03-21T14:21:47.780Z,7.36
2023-03-21T14:22:47.971Z,7.36
2023-03-21T14:23:47.970Z,7.36
2023-03-21T14:24:49.587Z,7.41
2023-03-21T14:25:48.329Z,7.41
2023-03-21T14:26:49.137Z,7.36
2023-03-21T14:27:48.352Z,7.36
2023-03-21T14:28:48.591Z,7.41
2023-03-21T14:29:48.530Z,7.41
2023-03-21T14:30:48.667Z,7.36
2023-03-21T14:31:48.862Z,7.41
2023-03-21T14:32:49.096Z,7.36
2023-03-21T14:33:48.861Z,7.36
2023-03-21T14:34:49.237Z,7.36
2023-03-21T14:35:49.085Z,7.36
2023-03-21T14:36:57.470Z,7.41
2023-03-21T14:37:49.170Z,7.36
2023-03-21T14:38:49.885Z,7.36
2023-03-21T14:39:49.391Z,7.36
2023-03-21T14:40:49.430Z,7.36
2023-03-21T14:41:49.545Z,7.52
2023-03-21T14:42:49.622Z,7.41
2023-03-21T14:43:49.700Z,7.36
2023-03-21T14:44:57.050Z,7.36
2023-03-21T14:45:49.948Z,7.41
2023-03-21T14:46:49.982Z,7.41
2023-03-21T14:47:50.071Z,7.36
2023-03-21T14:48:58.648Z,7.41
2023-03-21T14:49:50.191Z,7.41
2023-03-21T14:50:50.309Z,7.41
2023-03-21T14:51:50.834Z,7.41
2023-03-21T14:52:50.507Z,7.41
2023-03-21T14:53:50.566Z,7.41
2023-03-21T14:54:50.636Z,7.36
2023-03-21T14:55:50.732Z,7.36
2023-03-21T14:56:50.840Z,7.41
2023-03-21T14:57:50.864Z,7.36
2023-03-21T14:58:50.971Z,7.41
2023-03-21T14:59:51.108Z,7.36
2023-03-21T15:00:51.156Z,7.36
2023-03-21T15:01:51.248Z,7.41
2023-03-21T15:02:51.413Z,7.41
2023-03-21T15:03:51.383Z,7.41
2023-03-21T15:04:51.591Z,7.41
2023-03-21T15:05:52.254Z,7.41
2023-03-21T15:06:51.650Z,7.36
2023-03-21T15:07:51.756Z,7.36
2023-03-21T15:08:51.825Z,7.36
2023-03-21T15:09:51.872Z,7.41
2023-03-21T15:11:00.843Z,7.36
2023-03-21T15:11:52.179Z,7.41
2023-03-21T15:12:52.179Z,7.41
2023-03-21T15:13:52.236Z,7.41
2023-03-21T15:14:52.347Z,7.41
2023-03-21T15:15:52.504Z,7.41
2023-03-21T15:16:52.547Z,7.41
2023-03-21T15:17:52.700Z,7.41
2023-03-21T15:18:52.718Z,7.47
2023-03-21T15:20:19.029Z,7.36
2023-03-21T15:20:52.818Z,7.41
2023-03-21T15:21:53.217Z,7.36
2023-03-21T15:22:53.429Z,7.41
2023-03-21T15:23:53.080Z,7.41
2023-03-21T15:24:53.149Z,7.36
2023-03-21T15:25:53.252Z,7.41
2023-03-21T15:26:53.447Z,7.41
2023-03-21T15:27:53.367Z,7.36
2023-03-21T15:28:53.423Z,7.36
2023-03-21T15:29:53.542Z,7.36
2023-03-21T15:30:53.615Z,7.36
2023-03-21T15:31:53.726Z,7.41
2023-03-21T15:32:53.756Z,7.41
2023-03-21T15:33:53.870Z,7.36
2023-03-21T15:34:53.916Z,7.41
2023-03-21T15:35:54.214Z,7.41
2023-03-21T15:36:54.073Z,7.41
2023-03-21T15:37:54.183Z,7.41
2023-03-21T15:38:54.277Z,7.36
2023-03-21T15:39:54.801Z,7.36
2023-03-21T15:40:54.423Z,7.47
2023-03-21T15:41:54.532Z,7.41
2023-03-21T15:42:54.593Z,7.41
2023-03-21T15:43:54.714Z,7.41
2023-03-21T15:44:54.823Z,7.41
2023-03-21T15:45:54.864Z,7.36
2023-03-21T15:46:55.062Z,7.41
2023-03-21T15:47:55.113Z,7.41
2023-03-21T15:48:55.166Z,7.41
2023-03-21T15:49:55.279Z,7.41
2023-03-21T15:55:49.208Z,7.41
2023-03-21T15:56:50.400Z,7.41
2023-03-21T15:57:50.375Z,7.36
2023-03-21T15:58:50.446Z,7.36
2023-03-21T15:59:50.528Z,7.36
2023-03-21T16:00:52.200Z,7.36
2023-03-21T16:01:50.738Z,7.36
2023-03-21T16:02:50.865Z,7.41
2023-03-21T16:03:50.857Z,7.36
2023-03-21T16:04:50.973Z,7.36
2023-03-21T16:05:51.037Z,7.36
2023-03-21T16:06:51.082Z,7.36
2023-03-21T16:07:51.187Z,7.41
2023-03-21T16:08:51.235Z,7.41
2023-03-21T16:09:51.377Z,7.36
2023-03-21T16:10:51.471Z,7.36
2023-03-21T16:11:51.535Z,7.41
2023-03-21T16:12:51.604Z,7.41
2023-03-21T16:13:51.671Z,7.41
2023-03-21T16:14:51.718Z,7.36
2023-03-21T16:15:51.807Z,7.41
2023-03-21T16:16:51.929Z,7.41
2023-03-21T16:17:51.969Z,7.36
2023-03-21T16:18:52.088Z,7.36
2023-03-21T16:19:52.314Z,7.41
2023-03-21T16:20:52.224Z,7.41
2023-03-21T16:21:52.301Z,7.36
2023-03-21T16:22:52.463Z,7.41
2023-03-21T16:23:52.486Z,7.41
2023-03-21T16:24:52.565Z,7.52
2023-03-21T16:25:52.648Z,7.41
2023-03-21T16:27:01.657Z,7.36
2023-03-21T16:27:52.875Z,7.36
2023-03-21T16:28:52.943Z,7.41
2023-03-21T16:29:53.008Z,7.41
2023-03-21T16:30:53.051Z,7.36
2023-03-21T16:31:53.246Z,7.36
2023-03-21T16:32:53.735Z,7.41
2023-03-21T16:33:53.281Z,7.41
2023-03-21T16:34:53.424Z,7.36
2023-03-21T16:35:53.496Z,7.36
2023-03-21T16:36:53.612Z,7.36
2023-03-21T16:37:53.640Z,7.36
2023-03-21T16:38:53.704Z,7.36
2023-03-21T16:39:53.808Z,7.36
2023-03-21T16:41:00.348Z,7.36
2023-03-21T16:41:53.876Z,7.41
2023-03-21T16:42:53.941Z,7.41
2023-03-21T16:43:54.022Z,7.41
2023-03-21T16:44:54.206Z,7.41
2023-03-21T16:45:54.227Z,7.41
2023-03-21T16:46:54.240Z,7.41
2023-03-21T16:47:54.326Z,7.41
2023-03-21T16:48:54.458Z,7.41
2023-03-21T16:49:54.478Z,7.36
2023-03-21T16:50:54.570Z,7.41
2023-03-21T16:51:54.658Z,7.41
2023-03-21T16:52:54.793Z,7.41
2023-03-21T16:53:54.834Z,7.41
2023-03-21T16:54:54.923Z,7.36
2023-03-21T16:55:54.982Z,7.36
2023-03-21T16:56:55.052Z,7.41
2023-03-21T16:57:55.136Z,7.41
2023-03-21T16:58:55.245Z,7.36
2023-03-21T16:59:55.332Z,7.36
2023-03-21T17:00:55.476Z,7.36
2023-03-21T17:01:55.517Z,7.36
2023-03-21T17:02:55.686Z,7.36
2023-03-21T17:03:55.709Z,7.36
2023-03-21T17:04:55.753Z,7.41
2023-03-21T17:05:55.877Z,7.41
2023-03-21T17:06:55.965Z,7.41
2023-03-21T17:07:56.046Z,7.41
2023-03-21T17:08:56.127Z,7.41
2023-03-21T17:09:56.161Z,7.41
2023-03-21T17:10:56.301Z,7.41
2023-03-21T17:12:08.299Z,7.41
2023-03-21T17:12:56.426Z,7.41
2023-03-21T17:13:56.496Z,7.41
2023-03-21T17:14:56.614Z,7.41
2023-03-21T17:15:56.658Z,7.41
2023-03-21T17:16:56.760Z,7.36
2023-03-21T17:17:56.773Z,7.41
2023-03-21T17:18:56.832Z,7.41
2023-03-21T17:19:56.916Z,7.36
2023-03-21T17:20:57.797Z,7.41
2023-03-21T17:21:57.120Z,7.41
2023-03-21T17:22:57.202Z,7.41
2023-03-21T17:23:57.258Z,7.41
2023-03-21T17:24:57.354Z,7.41
2023-03-21T17:25:57.468Z,7.36
2023-03-21T17:26:57.542Z,7.36
2023-03-21T17:27:57.631Z,7.36
2023-03-21T17:28:57.672Z,7.36
2023-03-21T17:29:57.877Z,7.41
2023-03-21T17:31:04.562Z,7.36
2023-03-21T17:32:06.304Z,7.36
2023-03-21T17:32:58.016Z,7.41
2023-03-21T17:33:58.110Z,7.36
2023-03-21T17:34:58.166Z,7.36
2023-03-21T17:35:58.355Z,7.36
2023-03-21T17:36:58.333Z,7.36
2023-03-21T17:37:58.688Z,7.36
2023-03-21T17:38:58.541Z,7.36
2023-03-21T17:39:58.920Z,7.36
2023-03-21T17:40:58.721Z,7.36
2023-03-21T17:41:58.808Z,7.41
2023-03-21T17:42:58.905Z,7.41
2023-03-21T17:43:59.010Z,7.41
2023-03-21T17:44:59.100Z,7.36
2023-03-21T17:45:59.301Z,7.41
2023-03-21T17:46:59.272Z,7.36
2023-03-21T17:47:59.446Z,7.36
2023-03-21T17:48:59.400Z,7.36
2023-03-21T17:49:59.525Z,7.36
2023-03-21T17:50:59.578Z,7.41
2023-03-21T17:51:59.676Z,7.36
2023-03-21T17:52:59.772Z,7.41
2023-03-21T17:53:59.867Z,7.36
2023-03-21T17:54:59.955Z,7.36
2023-03-21T17:56:00.098Z,7.41
2023-03-21T17:57:00.160Z,7.36
2023-03-21T17:58:00.248Z,7.57
2023-03-21T17:59:00.284Z,7.41
2023-03-21T18:00:00.386Z,7.41
2023-03-21T18:01:00.491Z,7.36
2023-03-21T18:02:00.622Z,7.41
2023-03-21T18:03:08.414Z,7.36
2023-03-21T18:04:00.714Z,7.36
2023-03-21T18:05:00.868Z,7.36
2023-03-21T18:06:00.883Z,7.63
2023-03-21T18:07:01.449Z,7.57
2023-03-21T18:08:11.277Z,7.57
2023-03-21T18:09:01.090Z,7.57
2023-03-21T18:10:01.194Z,7.41
2023-03-21T18:11:01.268Z,7.36
2023-03-21T18:12:01.362Z,7.41
2023-03-21T18:13:01.417Z,7.36
2023-03-21T18:14:15.319Z,7.36
2023-03-21T18:15:01.587Z,7.41
2023-03-21T18:16:02.649Z,7.41
2023-03-21T18:17:01.745Z,7.63
2023-03-21T18:18:01.838Z,7.57
2023-03-21T18:19:01.903Z,7.36
2023-03-21T18:20:02.019Z,7.36
2023-03-21T18:21:02.508Z,7.57
2023-03-21T18:22:02.209Z,7.57
2023-03-21T18:23:02.291Z,7.57
2023-03-21T18:24:14.241Z,7.57
2023-03-21T18:25:10.958Z,7.52
2023-03-21T18:26:02.463Z,7.63
2023-03-21T18:27:02.550Z,7.57
2023-03-21T18:28:11.437Z,7.63
2023-03-21T18:30:00.354Z,7.41
2023-03-21T18:30:44.591Z,7.57
2023-03-21T18:31:11.567Z,7.57
2023-03-21T18:32:07.056Z,7.52
2023-03-21T18:33:03.053Z,7.57
2023-03-21T18:34:03.167Z,7.57
2023-03-21T18:35:03.256Z,7.57
2023-03-21T18:36:07.542Z,7.63
2023-03-21T18:37:04.369Z,7.63
2023-03-21T18:38:03.532Z,7.57
2023-03-21T18:39:03.665Z,7.57
2023-03-21T18:40:03.650Z,7.57
2023-03-21T18:41:03.730Z,7.63
2023-03-21T18:42:04.722Z,7.57
2023-03-21T18:44:12.955Z,7.57
2023-03-21T18:45:04.037Z,7.57
2023-03-21T18:46:04.127Z,7.57
2023-03-21T18:47:04.351Z,7.63
2023-03-21T18:48:04.315Z,7.57
2023-03-21T18:49:42.299Z,7.57
2023-03-21T18:50:14.160Z,7.57
2023-03-21T18:51:04.547Z,7.57
2023-03-21T18:52:04.638Z,7.57
2023-03-21T18:53:04.748Z,7.63
2023-03-21T18:54:04.788Z,7.68
2023-03-21T18:55:05.343Z,7.57
2023-03-21T18:58:06.378Z,7.57
2023-03-21T18:59:07.491Z,7.57
2023-03-21T19:00:07.560Z,7.57
2023-03-21T19:01:07.915Z,7.52
2023-03-21T19:02:07.807Z,7.57
2023-03-21T19:03:19.224Z,7.57
2023-03-21T19:04:29.729Z,7.52
2023-03-21T19:05:08.070Z,7.57
2023-03-21T19:06:08.107Z,7.57
2023-03-21T19:07:08.191Z,7.57
2023-03-21T19:08:08.287Z,7.57
2023-03-21T19:09:08.344Z,7.57
2023-03-21T19:10:23.981Z,7.57
2023-03-21T19:11:08.520Z,7.68
2023-03-21T19:12:08.639Z,7.52
2023-03-21T19:13:08.678Z,7.63
2023-03-21T19:14:08.745Z,7.57
2023-03-21T19:15:08.856Z,7.63
2023-03-21T19:16:11.312Z,7.57
2023-03-21T19:17:56.433Z,7.63
2023-03-21T19:18:49.574Z,7.57
2023-03-21T19:19:09.271Z,7.57
2023-03-21T19:20:09.255Z,7.57
2023-03-21T19:21:09.313Z,7.57
2023-03-21T19:22:09.419Z,7.57
2023-03-21T19:23:10.823Z,7.57
2023-03-21T19:24:27.004Z,7.57
2023-03-21T19:25:09.640Z,7.57
2023-03-21T19:26:09.692Z,7.63
2023-03-21T19:27:09.793Z,7.63
2023-03-21T19:28:09.913Z,7.57
2023-03-21T19:32:29.280Z,7.57
2023-03-21T19:36:27.537Z,7.57
2023-03-21T19:37:25.396Z,7.57
2023-03-21T19:38:25.495Z,7.63
2023-03-21T19:39:25.537Z,7.63
2023-03-21T19:40:25.629Z,7.57
2023-03-21T19:41:25.758Z,7.57
2023-03-21T19:42:29.324Z,7.63
2023-03-21T19:43:32.668Z,7.57
2023-03-21T19:44:25.991Z,7.57
2023-03-21T19:45:26.030Z,7.57
2023-03-21T19:46:26.128Z,7.57
2023-03-21T19:47:26.232Z,7.63
2023-03-21T19:48:27.079Z,7.57
2023-03-21T19:49:45.645Z,7.57
2023-03-21T19:51:03.387Z,7.57
2023-03-21T19:51:29.298Z,7.63
2023-03-21T19:52:26.653Z,7.57
2023-03-21T19:53:26.770Z,7.57
2023-03-21T19:54:26.846Z,7.57
2023-03-21T19:55:26.977Z,7.57
2023-03-21T19:56:27.802Z,7.57
2023-03-21T19:57:27.081Z,7.57
2023-03-21T19:58:27.196Z,7.57
2023-03-21T19:59:27.281Z,7.57
2023-03-21T20:00:27.322Z,7.57
2023-03-21T20:01:27.844Z,7.63
2023-03-21T20:02:35.698Z,7.57
2023-03-21T20:03:27.712Z,7.52
2023-03-21T20:04:27.698Z,7.63
2023-03-21T20:05:27.793Z,7.57
2023-03-21T20:06:27.911Z,7.52
